Time;durP1;ratioP1;P1;durP2;ratioP2;P2;SDS_P1;SDS_P2;PMS_P1;PMS_P2;Temp;Humidity;BMP_temperature;BMP_pressure;BME280_temperature;BME280_humidity;BME280_pressure;Samples;Min_cycle;Max_cycle;Signal;HPM_P1;HPM_P2
2021/03/22 00:00:44;;;;;;;41.93;28.57;;;4.60;67.70;;;;;;5030964;28;20032;-86
2021/03/22 00:03:11;;;;;;;33.90;25.27;;;4.60;67.70;;;;;;5027722;28;20021;-85
2021/03/22 00:05:37;;;;;;;34.27;24.40;;;4.50;67.50;;;;;;5031295;28;20487;-85
2021/03/22 00:08:04;;;;;;;40.57;28.20;;;4.60;67.80;;;;;;5059434;28;20029;-86
2021/03/22 00:10:31;;;;;;;34.43;24.93;;;4.60;67.80;;;;;;5027224;28;20018;-86
2021/03/22 00:12:58;;;;;;;38.63;27.50;;;4.60;67.70;;;;;;5034800;28;20104;-85
2021/03/22 00:15:25;;;;;;;38.17;28.30;;;4.60;67.60;;;;;;5052941;28;20026;-86
2021/03/22 00:17:51;;;;;;;39.03;28.63;;;4.60;67.70;;;;;;5049731;28;20487;-85
2021/03/22 00:20:17;;;;;;;40.27;27.67;;;4.60;67.70;;;;;;5031735;28;20059;-85
2021/03/22 00:22:43;;;;;;;44.30;28.93;;;4.60;67.70;;;;;;5046689;28;20033;-85
2021/03/22 00:25:10;;;;;;;38.43;28.13;;;4.70;67.70;;;;;;5031776;28;20044;-85
2021/03/22 00:27:37;;;;;;;37.80;27.60;;;4.60;67.50;;;;;;5032296;28;20029;-86
2021/03/22 00:30:05;;;;;;;38.60;27.80;;;4.70;67.80;;;;;;5033064;28;20029;-85
2021/03/22 00:32:31;;;;;;;36.53;27.57;;;4.70;67.40;;;;;;5045567;28;20079;-86
2021/03/22 00:34:57;;;;;;;41.07;28.90;;;4.60;67.40;;;;;;5023003;28;690705;-86
2021/03/22 00:37:22;;;;;;;42.07;30.20;;;4.60;67.60;;;;;;5030275;28;20028;-85
2021/03/22 00:39:48;;;;;;;40.07;29.57;;;4.60;67.60;;;;;;5045133;28;20527;-85
2021/03/22 00:42:14;;;;;;;46.67;31.90;;;4.50;67.70;;;;;;5035371;28;20025;-86
2021/03/22 00:44:39;;;;;;;50.37;35.03;;;4.50;67.80;;;;;;5034322;28;20128;-86
2021/03/22 00:47:06;;;;;;;46.50;33.20;;;4.40;67.80;;;;;;5042393;28;20411;-85
2021/03/22 00:49:31;;;;;;;48.47;32.30;;;4.40;68.00;;;;;;5050202;28;20022;-86
2021/03/22 00:51:57;;;;;;;50.20;34.77;;;4.30;68.10;;;;;;5045217;28;20025;-86
2021/03/22 00:54:23;;;;;;;49.30;34.40;;;4.30;68.20;;;;;;5033188;28;20094;-85
2021/03/22 00:56:49;;;;;;;45.10;32.87;;;4.30;68.20;;;;;;5048122;28;20034;-86
2021/03/22 00:59:17;;;;;;;50.57;34.97;;;4.30;68.90;;;;;;5059442;28;20037;-86
2021/03/22 01:01:43;;;;;;;44.93;32.37;;;4.30;68.40;;;;;;5058164;28;20037;-86
2021/03/22 01:04:09;;;;;;;51.60;34.67;;;4.20;68.30;;;;;;5048239;28;20036;-86
2021/03/22 01:06:35;;;;;;;49.07;33.87;;;4.20;68.50;;;;;;5035138;28;21044;-86
2021/03/22 01:09:01;;;;;;;49.40;34.50;;;4.20;68.80;;;;;;5035131;28;20036;-86
2021/03/22 01:11:26;;;;;;;49.63;34.43;;;4.20;68.80;;;;;;5026224;28;20071;-86
2021/03/22 01:13:57;;;;;;;46.30;31.43;;;4.20;68.70;;;;;;5033095;28;20026;-86
2021/03/22 01:16:35;;;;;;;49.70;34.30;;;4.30;69.10;;;;;;5043496;28;20030;-86
2021/03/22 01:19:07;;;;;;;52.63;35.60;;;4.40;68.90;;;;;;5042566;28;20381;-86
2021/03/22 01:21:34;;;;;;;54.70;36.53;;;4.40;68.50;;;;;;5049616;28;20084;-86
2021/03/22 01:24:01;;;;;;;52.33;36.40;;;4.40;68.50;;;;;;5035033;28;20492;-85
2021/03/22 01:26:31;;;;;;;53.90;35.13;;;4.40;68.50;;;;;;5036161;28;20160;-85
2021/03/22 01:28:58;;;;;;;50.33;32.27;;;4.40;68.50;;;;;;5030463;28;20029;-85
2021/03/22 01:31:25;;;;;;;46.03;31.53;;;4.40;68.50;;;;;;5031535;28;20041;-86
2021/03/22 01:33:53;;;;;;;46.23;31.37;;;4.30;68.50;;;;;;5025390;28;20653;-86
2021/03/22 01:36:23;;;;;;;47.03;31.70;;;4.30;68.40;;;;;;5031969;28;20033;-86
2021/03/22 01:38:49;;;;;;;49.63;33.00;;;4.30;68.50;;;;;;5027746;28;20017;-85
2021/03/22 01:41:34;;;;;;;48.23;33.20;;;4.30;68.50;;;;;;5031337;28;20038;-86
2021/03/22 01:44:15;;;;;;;53.40;33.57;;;4.30;68.50;;;;;;5026457;28;20030;-86
2021/03/22 01:46:49;;;;;;;47.93;33.30;;;4.30;69.10;;;;;;5040815;28;20057;-86
2021/03/22 01:49:16;;;;;;;48.33;32.97;;;4.30;68.50;;;;;;5046935;28;20105;-85
2021/03/22 01:51:43;;;;;;;48.17;32.43;;;4.30;68.50;;;;;;5028545;28;20100;-85
2021/03/22 01:54:10;;;;;;;50.63;33.93;;;4.30;68.60;;;;;;5028335;28;20033;-85
2021/03/22 01:56:55;;;;;;;53.60;34.53;;;4.30;68.50;;;;;;5032631;28;20026;-85
2021/03/22 01:59:28;;;;;;;55.03;34.67;;;4.30;68.50;;;;;;5044609;28;20102;-85
2021/03/22 02:01:59;;;;;;;49.53;33.73;;;4.30;68.40;;;;;;5032494;28;20025;-85
2021/03/22 02:04:25;;;;;;;53.47;33.63;;;4.20;68.50;;;;;;5031192;28;20075;-84
2021/03/22 02:06:52;;;;;;;54.93;34.57;;;4.30;68.50;;;;;;5027479;28;20025;-85
2021/03/22 02:09:18;;;;;;;48.67;33.73;;;4.30;68.50;;;;;;5059608;28;20025;-84
2021/03/22 02:11:43;;;;;;;54.40;35.50;;;4.20;68.50;;;;;;5042331;28;20416;-84
2021/03/22 02:14:11;;;;;;;49.23;33.80;;;4.30;68.80;;;;;;5041521;28;20147;-84
2021/03/22 02:16:56;;;;;;;54.30;37.33;;;4.30;68.60;;;;;;5026257;28;22224;-84
2021/03/22 02:19:59;;;;;;;56.77;36.97;;;4.30;68.50;;;;;;5024309;28;20037;-84
2021/03/22 02:22:41;;;;;;;59.85;37.92;;;4.30;68.50;;;;;;5046108;28;20045;-84
2021/03/22 02:25:31;;;;;;;61.90;39.13;;;4.20;68.40;;;;;;5028506;28;20765;-84
2021/03/22 02:27:59;;;;;;;58.13;37.83;;;4.20;68.60;;;;;;5025110;28;20026;-84
2021/03/22 02:30:40;;;;;;;61.07;39.27;;;4.20;68.70;;;;;;5024173;28;20036;-84
2021/03/22 02:33:36;;;;;;;54.93;36.73;;;4.20;68.80;;;;;;5032274;28;20034;-84
2021/03/22 02:36:19;;;;;;;54.63;35.13;;;4.20;68.90;;;;;;5030563;28;20046;-84
2021/03/22 02:38:59;;;;;;;52.42;36.53;;;4.20;69.00;;;;;;5029207;28;20033;-84
2021/03/22 02:41:40;;;;;;;57.70;38.03;;;4.20;68.90;;;;;;5041439;28;20048;-84
2021/03/22 02:44:31;;;;;;;57.83;37.87;;;4.30;68.80;;;;;;5031678;28;20036;-84
2021/03/22 02:47:04;;;;;;;53.23;36.83;;;4.30;68.70;;;;;;5058539;28;20030;-84
2021/03/22 02:49:31;;;;;;;;;;;4.20;68.60;;;;;;5046018;28;20014;-84
2021/03/22 02:52:06;;;;;;;54.83;36.20;;;4.20;68.70;;;;;;5031130;28;19952;-84
2021/03/22 02:54:51;;;;;;;56.23;37.37;;;4.30;68.70;;;;;;5022280;28;20088;-84
2021/03/22 02:57:26;;;;;;;56.93;37.60;;;4.30;68.70;;;;;;5035144;28;20029;-84
2021/03/22 03:00:00;;;;;;;55.80;37.27;;;4.30;68.80;;;;;;5026102;28;20034;-84
2021/03/22 03:02:28;;;;;;;55.67;37.70;;;4.30;68.80;;;;;;5041910;28;20033;-84
2021/03/22 03:04:54;;;;;;;60.30;39.00;;;4.30;68.70;;;;;;5043416;28;20439;-84
2021/03/22 03:07:25;;;;;;;62.77;39.93;;;4.30;68.70;;;;;;5048412;28;20033;-84
2021/03/22 03:09:51;;;;;;;58.03;37.53;;;4.20;68.70;;;;;;5027223;28;20022;-84
2021/03/22 03:12:17;;;;;;;58.53;38.40;;;4.30;69.00;;;;;;5043267;28;20026;-84
2021/03/22 03:14:45;;;;;;;62.50;38.57;;;4.30;68.90;;;;;;5033036;28;20049;-84
2021/03/22 03:17:11;;;;;;;63.90;42.07;;;4.30;68.90;;;;;;5028018;28;20026;-84
2021/03/22 03:19:37;;;;;;;63.27;41.50;;;4.20;68.80;;;;;;5033083;28;20045;-84
2021/03/22 03:22:04;;;;;;;62.73;38.63;;;4.20;68.80;;;;;;5026748;28;20025;-84
2021/03/22 03:24:30;;;;;;;58.13;39.43;;;4.20;68.90;;;;;;5038150;28;20037;-84
2021/03/22 03:26:55;;;;;;;52.90;38.13;;;4.20;69.10;;;;;;5045298;28;20159;-84
2021/03/22 03:29:21;;;;;;;55.50;36.60;;;4.20;69.20;;;;;;5063034;28;20488;-84
2021/03/22 03:31:47;;;;;;;58.57;40.27;;;4.20;69.10;;;;;;5062293;28;20033;-84
2021/03/22 03:34:13;;;;;;;65.90;43.40;;;4.30;69.10;;;;;;5031852;28;20065;-84
2021/03/22 03:36:39;;;;;;;73.37;46.87;;;4.30;68.90;;;;;;5022624;28;20026;-84
2021/03/22 03:39:06;;;;;;;71.67;45.93;;;4.30;68.90;;;;;;5033717;28;20037;-84
2021/03/22 03:41:33;;;;;;;70.57;45.43;;;4.30;69.10;;;;;;5028739;28;20026;-84
2021/03/22 03:43:59;;;;;;;89.40;54.57;;;4.30;69.10;;;;;;5031202;28;20147;-84
2021/03/22 03:46:25;;;;;;;70.03;46.57;;;4.30;69.10;;;;;;5045205;28;20049;-84
2021/03/22 03:48:50;;;;;;;92.90;54.90;;;4.30;69.00;;;;;;5031633;28;20025;-84
2021/03/22 03:51:16;;;;;;;162.97;95.63;;;4.30;69.00;;;;;;5035722;28;20064;-84
2021/03/22 03:53:42;;;;;;;121.83;71.00;;;4.30;69.00;;;;;;5040156;28;20492;-84
2021/03/22 03:56:08;;;;;;;83.57;53.37;;;4.30;69.10;;;;;;5032894;28;20034;-84
2021/03/22 03:58:34;;;;;;;73.17;46.93;;;4.30;69.10;;;;;;5031203;28;20030;-84
2021/03/22 04:00:59;;;;;;;62.13;41.93;;;4.30;69.20;;;;;;5038007;28;20022;-84
2021/03/22 04:03:40;;;;;;;61.00;40.57;;;4.30;69.30;;;;;;5025398;28;20029;-84
2021/03/22 04:06:07;;;;;;;61.27;40.77;;;4.30;69.30;;;;;;5026679;28;20036;-84
2021/03/22 04:08:38;;;;;;;61.57;41.30;;;4.30;69.20;;;;;;5040023;28;20076;-84
2021/03/22 04:11:06;;;;;;;63.23;41.50;;;4.30;69.50;;;;;;5051863;28;20025;-84
2021/03/22 04:13:33;;;;;;;66.13;42.93;;;4.20;69.20;;;;;;5026222;28;20029;-84
2021/03/22 04:15:59;;;;;;;61.97;41.63;;;4.20;69.30;;;;;;5031749;28;20061;-84
2021/03/22 04:18:25;;;;;;;63.13;40.90;;;4.20;69.20;;;;;;5031625;28;20036;-83
2021/03/22 04:20:51;;;;;;;60.73;40.30;;;4.20;69.40;;;;;;5027858;28;20053;-84
2021/03/22 04:23:17;;;;;;;61.53;40.30;;;4.20;69.40;;;;;;5029277;28;20097;-84
2021/03/22 04:25:43;;;;;;;60.03;39.03;;;4.20;69.40;;;;;;5026377;28;20079;-84
2021/03/22 04:28:09;;;;;;;59.20;39.43;;;4.20;68.90;;;;;;5032921;28;20117;-84
2021/03/22 04:30:35;;;;;;;62.93;42.03;;;4.20;69.40;;;;;;5033411;28;20482;-84
2021/03/22 04:33:00;;;;;;;61.77;40.97;;;4.20;69.50;;;;;;5033582;28;20112;-84
2021/03/22 04:35:27;;;;;;;59.97;38.40;;;4.20;69.50;;;;;;5041312;28;20508;-84
2021/03/22 04:37:54;;;;;;;58.43;38.30;;;4.20;69.30;;;;;;5044150;28;20049;-84
2021/03/22 04:40:23;;;;;;;58.83;39.47;;;4.10;69.60;;;;;;5027096;28;20053;-84
2021/03/22 04:42:49;;;;;;;60.50;39.47;;;4.20;69.70;;;;;;5034592;28;20030;-84
2021/03/22 04:45:22;;;;;;;54.50;37.20;;;4.20;69.60;;;;;;5031010;28;20029;-84
2021/03/22 04:47:48;;;;;;;62.67;39.63;;;4.20;69.70;;;;;;5027959;28;20022;-84
2021/03/22 04:50:18;;;;;;;59.73;39.23;;;4.20;69.40;;;;;;5026569;28;20025;-84
2021/03/22 04:52:43;;;;;;;67.87;42.87;;;4.20;69.60;;;;;;5023551;28;20029;-84
2021/03/22 04:55:09;;;;;;;60.80;40.37;;;4.30;69.70;;;;;;5039838;28;20026;-84
2021/03/22 04:57:35;;;;;;;70.70;42.73;;;4.20;69.70;;;;;;5033683;28;20028;-84
2021/03/22 05:00:07;;;;;;;64.50;41.97;;;4.30;70.00;;;;;;5029499;28;20030;-84
2021/03/22 05:02:32;;;;;;;62.33;41.07;;;4.30;70.00;;;;;;5027657;28;20108;-84
2021/03/22 05:04:58;;;;;;;63.60;41.13;;;4.30;70.00;;;;;;5034279;28;20376;-84
2021/03/22 05:07:24;;;;;;;59.57;40.70;;;4.30;69.90;;;;;;5048146;28;20112;-84
2021/03/22 05:09:50;;;;;;;65.00;40.57;;;4.20;69.90;;;;;;5027305;28;20025;-84
2021/03/22 05:12:15;;;;;;;61.20;40.30;;;4.20;70.10;;;;;;5038211;28;20032;-84
2021/03/22 05:14:41;;;;;;;68.90;40.60;;;4.20;70.10;;;;;;5047975;28;20443;-84
2021/03/22 05:17:08;;;;;;;64.37;41.53;;;4.20;70.10;;;;;;5040979;28;20053;-84
2021/03/22 05:19:35;;;;;;;70.33;41.80;;;4.20;70.20;;;;;;5033587;28;20377;-84
2021/03/22 05:22:00;;;;;;;62.63;40.97;;;4.30;70.10;;;;;;5025846;28;20034;-84
2021/03/22 05:24:27;;;;;;;64.73;40.50;;;4.20;70.10;;;;;;5043321;28;20037;-84
2021/03/22 05:26:54;;;;;;;64.67;41.50;;;4.20;70.40;;;;;;5028350;28;20017;-84
2021/03/22 05:29:21;;;;;;;66.77;40.77;;;4.30;70.30;;;;;;5041767;28;20385;-84
2021/03/22 05:31:47;;;;;;;63.63;40.23;;;4.30;70.20;;;;;;5029793;28;20021;-84
2021/03/22 05:34:14;;;;;;;65.23;42.17;;;4.40;70.30;;;;;;5029249;28;20046;-84
2021/03/22 05:36:39;;;;;;;66.63;42.03;;;4.50;70.10;;;;;;5031518;28;20120;-84
2021/03/22 05:39:06;;;;;;;63.37;41.07;;;4.40;69.90;;;;;;5031427;28;20057;-84
2021/03/22 05:41:43;;;;;;;64.20;39.63;;;4.40;70.50;;;;;;5048579;28;20463;-84
2021/03/22 05:44:46;;;;;;;63.53;39.73;;;4.40;69.90;;;;;;5031475;28;20034;-84
2021/03/22 05:47:28;;;;;;;59.42;37.97;;;4.40;70.10;;;;;;5032772;28;20065;-84
2021/03/22 05:50:04;;;;;;;63.27;38.13;;;4.40;70.00;;;;;;5061786;28;20047;-84
2021/03/22 05:52:52;;;;;;;63.73;37.73;;;4.40;70.00;;;;;;5021384;28;20489;-84
2021/03/22 05:55:36;;;;;;;64.27;39.43;;;4.40;70.00;;;;;;5039273;28;20033;-84
2021/03/22 05:58:11;;;;;;;64.07;37.43;;;4.40;70.00;;;;;;5045864;28;20120;-84
2021/03/22 06:00:58;;;;;;;66.83;39.73;;;4.40;70.00;;;;;;5031590;28;20026;-84
2021/03/22 06:03:32;;;;;;;64.93;39.33;;;4.40;70.00;;;;;;5030180;28;20128;-84
2021/03/22 06:06:13;;;;;;;59.13;39.37;;;4.40;70.20;;;;;;5028824;28;20053;-84
2021/03/22 06:08:42;;;;;;;65.70;37.77;;;4.50;70.40;;;;;;5024664;28;20556;-84
2021/03/22 06:11:23;;;;;;;63.17;38.50;;;4.50;70.20;;;;;;5025793;28;20502;-84
2021/03/22 06:13:59;;;;;;;64.03;40.47;;;4.50;70.10;;;;;;5037391;28;20043;-84
2021/03/22 06:16:38;;;;;;;68.07;42.27;;;4.50;70.00;;;;;;5028130;28;20179;-84
2021/03/22 06:19:10;;;;;;;71.50;44.10;;;4.50;70.10;;;;;;5029189;28;20057;-83
2021/03/22 06:21:39;;;;;;;68.57;41.42;;;4.50;70.10;;;;;;5029671;28;20086;-84
2021/03/22 06:24:23;;;;;;;77.07;46.87;;;4.50;70.10;;;;;;5043738;28;20030;-84
2021/03/22 06:26:52;;;;;;;74.10;43.83;;;4.50;70.20;;;;;;5046897;28;20029;-84
2021/03/22 06:29:28;;;;;;;68.23;43.53;;;4.60;70.20;;;;;;5034470;28;20026;-84
2021/03/22 06:32:02;;;;;;;62.13;41.43;;;4.60;70.10;;;;;;5027956;28;20025;-84
2021/03/22 06:34:59;;;;;;;66.50;41.07;;;4.60;70.10;;;;;;5038094;28;20056;-83
2021/03/22 06:37:31;;;;;;;64.97;42.13;;;4.70;70.20;;;;;;5053939;28;20037;-84
2021/03/22 06:40:26;;;;;;;64.27;40.87;;;4.70;70.10;;;;;;5033828;28;20065;-84
2021/03/22 06:43:27;;;;;;;63.47;40.60;;;4.70;70.00;;;;;;5043294;28;20129;-84
2021/03/22 06:46:05;;;;;;;67.03;40.07;;;4.70;70.10;;;;;;5028055;28;20041;-84
2021/03/22 06:48:33;;;;;;;69.13;40.63;;;4.70;70.00;;;;;;5027765;28;20053;-84
2021/03/22 06:51:05;;;;;;;68.17;42.97;;;4.70;70.10;;;;;;5020383;28;20030;-84
2021/03/22 06:53:53;;;;;;;72.07;40.00;;;4.80;70.10;;;;;;5027682;28;20025;-83
2021/03/22 06:56:19;;;;;;;65.37;38.97;;;4.80;70.10;;;;;;5029665;28;20040;-84
2021/03/22 06:58:47;;;;;;;58.20;38.07;;;4.80;70.00;;;;;;5035794;28;20030;-84
2021/03/22 07:01:20;;;;;;;62.80;39.00;;;4.80;69.90;;;;;;5039300;28;20030;-84
2021/03/22 07:03:46;;;;;;;68.67;39.70;;;4.80;70.20;;;;;;5029449;28;20053;-84
2021/03/22 07:06:30;;;;;;;68.47;39.67;;;4.80;70.00;;;;;;5021379;28;20025;-84
2021/03/22 07:08:56;;;;;;;60.13;37.53;;;4.90;70.20;;;;;;5031877;28;20060;-84
2021/03/22 07:11:24;;;;;;;61.23;38.37;;;4.80;69.90;;;;;;5035356;28;20468;-84
2021/03/22 07:13:51;;;;;;;63.47;40.03;;;4.90;70.10;;;;;;5042851;28;20026;-83
2021/03/22 07:16:23;;;;;;;67.37;40.60;;;4.90;70.20;;;;;;5031975;28;20033;-84
2021/03/22 07:19:17;;;;;;;66.27;40.20;;;4.90;70.10;;;;;;5040738;28;20049;-84
2021/03/22 07:21:58;;;;;;;59.87;38.33;;;4.90;70.10;;;;;;5031805;28;20288;-84
2021/03/22 07:25:06;;;;;;;65.37;39.67;;;4.90;70.20;;;;;;5040182;28;20030;-84
2021/03/22 07:27:44;;;;;;;59.53;39.37;;;4.90;70.20;;;;;;5040164;28;20446;-84
2021/03/22 07:30:12;;;;;;;55.20;36.97;;;4.90;70.20;;;;;;5037765;28;20021;-84
2021/03/22 07:32:53;;;;;;;62.40;39.07;;;5.00;70.60;;;;;;5058839;28;20040;-84
2021/03/22 07:35:49;;;;;;;59.50;39.93;;;5.00;70.30;;;;;;5033724;28;20044;-84
2021/03/22 07:38:49;;;;;;;51.80;34.77;;;5.00;70.30;;;;;;5023305;28;20026;-84
2021/03/22 07:41:56;;;;;;;54.13;33.07;;;5.00;70.20;;;;;;5028173;28;20032;-84
2021/03/22 07:44:39;;;;;;;48.97;33.40;;;5.10;70.10;;;;;;5030440;28;20052;-83
2021/03/22 07:47:11;;;;;;;53.20;32.85;;;5.20;70.10;;;;;;5033215;28;20033;-84
2021/03/22 07:50:03;;;;;;;52.90;35.30;;;5.20;70.00;;;;;;5024911;28;20071;-84
2021/03/22 07:52:39;;;;;;;53.25;35.05;;;5.30;70.10;;;;;;5035021;28;20883;-84
2021/03/22 07:55:33;;;;;;;54.20;34.40;;;5.30;70.00;;;;;;5033737;28;20029;-84
2021/03/22 07:58:24;;;;;;;53.28;33.08;;;5.40;69.90;;;;;;5061854;28;20053;-84
2021/03/22 08:01:08;;;;;;;43.40;29.73;;;5.40;69.60;;;;;;5035115;28;20033;-84
2021/03/22 08:03:37;;;;;;;45.23;27.77;;;5.40;69.70;;;;;;5026362;28;20044;-84
2021/03/22 08:06:41;;;;;;;47.97;30.30;;;5.50;69.70;;;;;;5031932;28;20053;-84
2021/03/22 08:09:21;;;;;;;50.90;29.73;;;5.50;69.60;;;;;;5031707;28;20028;-84
2021/03/22 08:12:02;;;;;;;50.63;30.10;;;5.60;69.60;;;;;;5028817;28;20043;-84
2021/03/22 08:14:38;;;;;;;50.67;29.87;;;5.60;69.60;;;;;;5036163;28;20479;-84
2021/03/22 08:17:12;;;;;;;46.27;26.70;;;5.60;69.40;;;;;;5035586;28;20034;-84
2021/03/22 08:19:57;;;;;;;43.20;26.53;;;5.60;69.50;;;;;;5028782;28;20040;-84
2021/03/22 08:22:42;;;;;;;35.23;24.27;;;5.70;69.60;;;;;;5024894;28;20101;-84
2021/03/22 08:25:32;;;;;;;40.03;22.83;;;5.70;69.40;;;;;;5028396;28;20025;-84
2021/03/22 08:28:26;;;;;;;38.80;19.87;;;5.70;69.30;;;;;;5030962;28;20018;-84
2021/03/22 08:31:18;;;;;;;34.80;18.50;;;5.80;69.30;;;;;;5016504;28;20480;-84
2021/03/22 08:33:53;;;;;;;37.93;20.17;;;5.80;68.90;;;;;;5028301;28;20049;-83
2021/03/22 08:36:58;;;;;;;35.83;19.90;;;5.80;69.10;;;;;;5029946;28;20037;-84
2021/03/22 08:39:32;;;;;;;35.03;19.80;;;5.80;69.20;;;;;;5032137;28;20021;-84
2021/03/22 08:42:19;;;;;;;37.13;20.90;;;5.90;69.10;;;;;;5025054;28;20029;-84
2021/03/22 08:44:59;;;;;;;37.47;19.60;;;5.90;69.10;;;;;;5031314;28;20030;-84
2021/03/22 08:48:07;;;;;;;30.47;18.93;;;6.00;68.90;;;;;;5027060;28;20022;-84
2021/03/22 08:50:35;;;;;;;32.13;19.13;;;6.00;68.90;;;;;;5042021;28;20502;-84
2021/03/22 08:53:10;;;;;;;38.33;19.90;;;6.00;69.00;;;;;;5039362;28;20059;-84
2021/03/22 08:55:39;;;;;;;40.13;23.17;;;6.00;68.80;;;;;;5048135;28;20032;-84
2021/03/22 08:58:29;;;;;;;42.53;21.57;;;6.10;68.70;;;;;;5033967;28;20056;-84
2021/03/22 09:01:19;;;;;;;37.70;21.33;;;6.10;68.50;;;;;;5037055;28;20059;-84
2021/03/22 09:03:50;;;;;;;36.03;21.53;;;6.20;68.50;;;;;;5046242;28;20040;-84
2021/03/22 09:06:23;;;;;;;43.33;22.13;;;6.20;68.20;;;;;;5024375;28;20070;-84
2021/03/22 09:08:54;;;;;;;40.97;19.35;;;6.30;68.30;;;;;;5038384;28;20056;-84
2021/03/22 09:11:26;;;;;;;42.60;19.67;;;6.30;68.30;;;;;;5051101;28;20126;-84
2021/03/22 09:13:52;;;;;;;40.67;21.17;;;6.30;68.20;;;;;;5035982;28;20617;-83
2021/03/22 09:16:24;;;;;;;42.30;18.10;;;6.30;68.30;;;;;;5025881;28;20125;-84
2021/03/22 09:19:08;;;;;;;35.67;16.63;;;6.30;68.20;;;;;;5037266;28;20049;-84
2021/03/22 09:21:44;;;;;;;35.80;18.67;;;6.30;68.10;;;;;;5037651;28;20029;-84
2021/03/22 09:24:36;;;;;;;36.83;16.43;;;6.30;68.10;;;;;;5020255;28;20029;-84
2021/03/22 09:27:24;;;;;;;38.93;17.60;;;6.30;68.00;;;;;;5025694;28;20038;-84
2021/03/22 09:30:02;;;;;;;32.83;16.17;;;6.30;68.00;;;;;;5043729;28;20030;-84
2021/03/22 09:32:32;;;;;;;37.07;17.67;;;6.40;68.00;;;;;;5029876;28;20495;-84
2021/03/22 09:35:01;;;;;;;33.73;15.77;;;6.50;67.60;;;;;;5022057;28;20176;-84
2021/03/22 09:38:20;;;;;;;39.00;18.00;;;6.50;67.50;;;;;;5035742;28;20030;-84
2021/03/22 09:40:58;;;;;;;41.57;17.40;;;6.60;67.50;;;;;;5025278;28;20088;-84
2021/03/22 09:43:29;;;;;;;41.00;17.67;;;6.60;67.40;;;;;;5045416;28;20034;-84
2021/03/22 09:46:01;;;;;;;37.97;16.30;;;6.70;67.60;;;;;;5031204;28;20372;-84
2021/03/22 09:48:35;;;;;;;35.40;15.02;;;6.70;67.40;;;;;;5037259;28;20036;-84
2021/03/22 09:51:01;;;;;;;44.07;17.07;;;6.70;67.40;;;;;;5044968;28;20116;-84
2021/03/22 09:53:33;;;;;;;32.10;15.33;;;6.70;67.40;;;;;;5030277;28;20034;-84
2021/03/22 09:56:09;;;;;;;34.33;15.40;;;6.70;67.50;;;;;;5024046;28;20053;-84
2021/03/22 09:58:45;;;;;;;38.63;15.27;;;6.70;67.50;;;;;;5042635;28;20112;-84
2021/03/22 10:01:38;;;;;;;30.57;13.83;;;6.70;67.40;;;;;;5036707;28;20400;-84
2021/03/22 10:04:23;;;;;;;33.53;14.23;;;6.70;67.20;;;;;;5048518;28;20144;-84
2021/03/22 10:07:04;;;;;;;36.93;13.87;;;6.70;67.20;;;;;;5020379;28;20034;-84
2021/03/22 10:09:54;;;;;;;41.47;14.90;;;6.70;67.20;;;;;;5029010;28;20132;-84
2021/03/22 10:12:33;;;;;;;31.57;14.03;;;6.70;67.10;;;;;;5027141;28;20080;-85
2021/03/22 10:15:11;;;;;;;29.47;13.10;;;6.70;67.20;;;;;;5027541;28;20040;-85
2021/03/22 10:18:04;;;;;;;37.13;14.87;;;6.70;67.20;;;;;;5029509;28;20060;-84
2021/03/22 10:20:38;;;;;;;34.95;13.35;;;6.70;67.20;;;;;;5029785;28;20057;-84
2021/03/22 10:23:33;;;;;;;36.33;15.00;;;6.70;67.10;;;;;;5036162;28;20075;-84
2021/03/22 10:26:22;;;;;;;32.60;13.17;;;6.70;67.20;;;;;;5029838;28;20022;-84
2021/03/22 10:28:48;;;;;;;36.47;12.30;;;6.80;67.30;;;;;;5034719;28;20121;-84
2021/03/22 10:31:25;;;;;;;40.43;13.33;;;6.80;67.20;;;;;;5032062;28;20018;-83
2021/03/22 10:33:58;;;;;;;25.37;9.50;;;6.80;67.20;;;;;;5043159;28;20068;-84
2021/03/22 10:36:34;;;;;;;39.60;11.23;;;6.90;67.20;;;;;;5058473;28;20057;-85
2021/03/22 10:39:01;;;;;;;32.27;12.07;;;6.90;67.20;;;;;;5052832;28;20026;-84
2021/03/22 10:59:52;;;;;;;37.10;13.60;;;7.00;67.60;;;;;;5710035;23;20740;-83
2021/03/22 11:02:38;;;;;;;40.43;12.00;;;7.10;67.40;;;;;;4976216;28;20034;-83
2021/03/22 11:05:13;;;;;;;35.83;12.70;;;7.20;67.40;;;;;;5049836;22;20067;-82
2021/03/22 11:07:39;;;;;;;36.40;14.23;;;7.20;67.50;;;;;;4954397;28;20509;-81
2021/03/22 11:10:18;;;;;;;41.20;13.63;;;7.20;67.40;;;;;;4961857;28;20031;-82
2021/03/22 11:12:46;;;;;;;32.50;13.20;;;7.20;67.40;;;;;;4969734;23;20113;-81
2021/03/22 11:17:47;;;;;;;30.93;12.37;;;7.20;67.50;;;;;;4969342;28;20054;-82
2021/03/22 11:20:15;;;;;;;37.63;11.63;;;7.20;67.50;;;;;;4977890;28;20035;-82
2021/03/22 11:22:43;;;;;;;25.10;10.77;;;7.20;67.40;;;;;;4972270;28;20390;-84
2021/03/22 11:25:34;;;;;;;20.07;8.87;;;7.30;67.50;;;;;;4967926;28;20169;-83
2021/03/22 11:28:24;;;;;;;26.00;9.97;;;7.30;67.00;;;;;;4976297;28;21435;-82
2021/03/22 11:30:49;;;;;;;25.87;9.60;;;7.30;66.80;;;;;;4975644;28;20026;-81
2021/03/22 11:33:37;;;;;;;19.53;9.30;;;7.20;67.00;;;;;;4974797;28;20496;-82
2021/03/22 11:36:12;;;;;;;20.50;9.07;;;7.20;67.10;;;;;;4974919;28;20031;-83
2021/03/22 11:39:06;;;;;;;22.73;9.20;;;7.20;67.10;;;;;;4970387;28;20118;-83
2021/03/22 11:41:34;;;;;;;28.10;9.40;;;7.30;67.00;;;;;;4970066;28;20497;-83
2021/03/22 11:44:04;;;;;;;21.27;8.63;;;7.40;66.80;;;;;;4975279;28;20504;-84
2021/03/22 11:46:31;;;;;;;21.43;8.37;;;7.40;66.70;;;;;;4986304;28;20015;-84
2021/03/22 11:48:57;;;;;;;22.80;10.03;;;7.50;66.60;;;;;;4971420;28;20027;-83
2021/03/22 11:51:22;;;;;;;19.30;7.80;;;7.50;66.70;;;;;;4997914;28;20082;-84
2021/03/22 11:54:09;;;;;;;26.40;9.17;;;7.50;66.60;;;;;;4975647;28;20070;-84
2021/03/22 11:56:37;;;;;;;31.63;10.13;;;7.30;66.30;;;;;;4963137;28;20122;-84
2021/03/22 11:59:22;;;;;;;21.90;7.90;;;7.30;66.90;;;;;;4973107;28;20026;-84
2021/03/22 12:02:06;;;;;;;22.93;8.33;;;7.30;66.70;;;;;;4970307;28;20486;-84
2021/03/22 12:04:33;;;;;;;23.80;8.00;;;7.30;66.40;;;;;;4975373;28;20427;-83
2021/03/22 12:07:07;;;;;;;25.77;9.33;;;7.20;66.30;;;;;;4975052;28;20023;-84
2021/03/22 12:09:34;;;;;;;28.97;8.80;;;7.20;66.90;;;;;;4968049;28;20037;-84
2021/03/22 12:12:07;;;;;;;28.67;8.67;;;7.30;66.60;;;;;;4974820;28;20022;-85
2021/03/22 12:14:33;;;;;;;31.00;8.70;;;7.30;66.60;;;;;;4969872;28;20057;-84
2021/03/22 12:17:07;;;;;;;29.57;9.97;;;7.30;66.60;;;;;;4976083;28;20035;-83
2021/03/22 12:19:41;;;;;;;29.13;11.23;;;7.30;66.60;;;;;;4972808;28;20042;-82
2021/03/22 12:22:17;;;;;;;30.67;9.20;;;7.40;66.60;;;;;;4974857;28;20108;-82
2021/03/22 12:24:43;;;;;;;30.20;8.83;;;7.60;66.50;;;;;;4972615;28;20083;-83
2021/03/22 12:27:17;;;;;;;29.80;9.53;;;7.60;66.30;;;;;;4968435;28;20431;-83
2021/03/22 12:29:43;;;;;;;22.60;7.60;;;7.60;66.50;;;;;;4970973;28;20707;-82
2021/03/22 12:32:22;;;;;;;30.93;8.80;;;7.60;66.50;;;;;;4972941;28;20129;-82
2021/03/22 12:34:48;;;;;;;21.67;7.77;;;7.70;66.20;;;;;;4970728;28;20927;-83
2021/03/22 12:37:23;;;;;;;20.50;7.73;;;7.70;66.30;;;;;;4973784;28;20035;-82
2021/03/22 12:39:48;;;;;;;28.23;9.43;;;7.70;65.90;;;;;;4965382;28;20039;-82
2021/03/22 12:42:15;;;;;;;26.23;8.43;;;7.60;65.70;;;;;;4965711;28;20414;-82
2021/03/22 12:44:42;;;;;;;28.60;9.17;;;7.50;65.90;;;;;;4967147;28;20035;-82
2021/03/22 12:47:21;;;;;;;22.37;8.70;;;7.50;66.10;;;;;;4963518;28;20154;-82
2021/03/22 12:49:47;;;;;;;27.60;8.03;;;7.50;66.10;;;;;;4972386;28;20061;-82
2021/03/22 12:52:13;;;;;;;29.20;9.17;;;7.50;66.10;;;;;;4973074;28;20054;-82
2021/03/22 12:54:39;;;;;;;25.07;7.90;;;7.50;66.10;;;;;;4970628;28;20039;-82
2021/03/22 12:57:05;;;;;;;23.93;8.00;;;7.30;65.70;;;;;;4970382;28;20043;-82
2021/03/22 12:59:35;;;;;;;23.20;7.13;;;7.20;66.10;;;;;;4966370;28;20509;-82
2021/03/22 13:02:03;;;;;;;29.43;8.93;;;7.40;66.40;;;;;;4982181;28;20033;-82
2021/03/22 13:04:29;;;;;;;21.27;7.40;;;7.40;66.00;;;;;;4969805;28;20026;-81
2021/03/22 13:06:55;;;;;;;22.77;9.33;;;7.50;65.90;;;;;;4973255;28;20038;-82
2021/03/22 13:09:21;;;;;;;28.63;9.50;;;7.40;65.90;;;;;;4964798;28;20038;-82
2021/03/22 13:11:47;;;;;;;17.87;7.23;;;7.30;65.80;;;;;;4974554;28;20027;-82
2021/03/22 13:14:16;;;;;;;30.23;9.47;;;7.30;66.10;;;;;;4973642;28;20037;-81
2021/03/22 13:16:42;;;;;;;27.83;7.80;;;7.30;66.00;;;;;;4971983;28;20503;-82
2021/03/22 13:19:08;;;;;;;32.90;9.07;;;7.30;65.60;;;;;;4971902;28;20090;-82
2021/03/22 13:21:33;;;;;;;35.43;8.97;;;7.30;65.90;;;;;;4969042;28;20031;-82
2021/03/22 13:23:59;;;;;;;23.70;7.93;;;7.30;65.90;;;;;;4981810;28;20031;-82
2021/03/22 13:26:27;;;;;;;26.33;8.37;;;7.30;65.90;;;;;;4962029;28;20118;-82
2021/03/22 13:28:55;;;;;;;25.57;6.90;;;7.40;65.90;;;;;;4968104;28;20027;-82
2021/03/22 13:31:21;;;;;;;27.83;8.07;;;7.30;65.30;;;;;;4954990;28;20020;-82